Brookhaven Airport


Codes: KHWV/WSH
Name: Brookhaven Airport
City: Shirley
Country: United States
Elevation: 81 ft.
Wikipedia:

Photos at Brookhaven Airport


   Photos courtesy of SpottingLog. You can add your own sightings and photos by signing up for a free trial today.



No photos found.

Weather at Brookhaven Airport


Time (UTC)DescriptionTempratureWindCloud coverageVisibilityPressureHumidity
23-May-2024 21:00Scattered Clouds21°C9 mph, SW33%10000m1011hPa82%
24-May-2024 00:00Broken Clouds18°C11 mph, SW67%10000m1011hPa90%
24-May-2024 03:00Broken Clouds16°C9 mph, SW84%10000m1011hPa93%
24-May-2024 06:00Overcast Clouds16°C4 mph, N92%10000m1011hPa96%
24-May-2024 09:00Overcast Clouds16°C4 mph, NE89%10000m1011hPa91%
24-May-2024 12:00Overcast Clouds17°C4 mph, NE85%10000m1012hPa78%
24-May-2024 15:00Overcast Clouds18°C4 mph, S88%10000m1012hPa72%
24-May-2024 18:00Overcast Clouds18°C9 mph, S90%6786m1011hPa71%
24-May-2024 21:00Broken Clouds19°C9 mph, SW63%10000m1009hPa67%
25-May-2024 00:00Scattered Clouds17°C11 mph, SW32%10000m1010hPa78%
25-May-2024 03:00Clear Sky16°C7 mph, W1%10000m1010hPa91%
25-May-2024 06:00Clear Sky16°C9 mph, W0%10000m1010hPa79%
25-May-2024 09:00Clear Sky15°C7 mph, N0%10000m1011hPa75%
25-May-2024 12:00Few Clouds16°C7 mph, N14%10000m1013hPa64%
25-May-2024 15:00Overcast Clouds17°C7 mph, E99%10000m1013hPa63%
25-May-2024 18:00Overcast Clouds17°C9 mph, SE100%10000m1012hPa69%
25-May-2024 21:00Overcast Clouds17°C11 mph, S100%10000m1011hPa68%
26-May-2024 00:00Overcast Clouds15°C9 mph, S100%10000m1011hPa77%
26-May-2024 03:00Scattered Clouds14°C9 mph, S25%10000m1011hPa90%
26-May-2024 06:00Light Rain15°C2 mph, W53%10000m1012hPa97%
26-May-2024 09:00Light Rain15°C11 mph, N100%0m1011hPa99%
26-May-2024 12:00Overcast Clouds16°C7 mph, SW95%10000m1012hPa95%
26-May-2024 15:00Broken Clouds18°C2 mph, N76%0m1012hPa91%
26-May-2024 18:00Overcast Clouds18°C4 mph, SE87%365m1012hPa89%
26-May-2024 21:00Broken Clouds19°C9 mph, S76%9537m1011hPa84%
27-May-2024 00:00Broken Clouds16°C7 mph, S77%10000m1011hPa93%
27-May-2024 03:00Broken Clouds15°C7 mph, S76%10000m1013hPa95%
27-May-2024 06:00Overcast Clouds15°C4 mph, E88%10000m1012hPa98%
27-May-2024 09:00Overcast Clouds14°C9 mph, E100%10000m1012hPa98%
27-May-2024 12:00Overcast Clouds15°C11 mph, E98%10000m1013hPa95%
27-May-2024 15:00Overcast Clouds15°C9 mph, SE100%7810m1011hPa97%
27-May-2024 18:00Overcast Clouds16°C9 mph, S100%6940m1011hPa95%
27-May-2024 21:00Light Rain17°C13 mph, S100%360m1009hPa97%
28-May-2024 00:00Light Rain15°C9 mph, S100%123m1009hPa99%
28-May-2024 03:00Light Rain15°C7 mph, S100%79m1009hPa99%
28-May-2024 06:00Overcast Clouds15°C7 mph, SE100%91m1007hPa99%
28-May-2024 09:00Light Rain15°C7 mph, S100%649m1006hPa99%
28-May-2024 12:00Overcast Clouds16°C9 mph, S100%5519m1007hPa97%
28-May-2024 15:00Scattered Clouds20°C13 mph, SW43%10000m1007hPa77%
28-May-2024 18:00Broken Clouds22°C18 mph, SW61%10000m1007hPa53%